createdAt,value
2017-11-14T00:01:33.204Z,4.90
2017-11-14T00:04:01.103Z,5.50
2017-11-14T00:06:29.384Z,4.83
2017-11-14T00:08:57.480Z,4.43
2017-11-14T00:11:26.345Z,5.20
2017-11-14T00:13:54.233Z,5.10
2017-11-14T00:16:21.752Z,6.37
2017-11-14T00:18:50.149Z,5.00
2017-11-14T00:21:17.813Z,5.40
2017-11-14T00:23:46.067Z,4.93
2017-11-14T00:26:13.740Z,4.67
2017-11-14T00:28:41.396Z,4.90
2017-11-14T00:31:08.892Z,5.63
2017-11-14T00:33:36.513Z,6.30
2017-11-14T00:36:04.016Z,5.43
2017-11-14T00:38:31.523Z,5.63
2017-11-14T00:40:59.020Z,5.47
2017-11-14T00:43:26.543Z,6.27
2017-11-14T00:45:54.429Z,4.93
2017-11-14T00:48:21.936Z,5.83
2017-11-14T00:50:50.195Z,5.57
2017-11-14T00:53:18.480Z,5.40
2017-11-14T00:55:46.765Z,7.30
2017-11-14T00:58:15.143Z,5.80
2017-11-14T01:00:42.635Z,6.40
2017-11-14T01:03:10.256Z,5.90
2017-11-14T01:05:37.756Z,5.90
2017-11-14T01:08:05.276Z,6.47
2017-11-14T01:10:32.782Z,5.57
2017-11-14T01:13:01.048Z,6.00
2017-11-14T01:15:30.068Z,6.60
2017-11-14T01:17:58.336Z,6.87
2017-11-14T01:20:26.243Z,5.90
2017-11-14T01:22:53.737Z,6.77
2017-11-14T01:25:21.639Z,6.90
2017-11-14T01:27:49.903Z,6.27
2017-11-14T01:30:17.415Z,6.00
2017-11-14T01:32:45.017Z,7.10
2017-11-14T01:35:12.535Z,6.00
2017-11-14T01:37:40.802Z,6.77
2017-11-14T01:40:08.424Z,6.03
2017-11-14T01:42:36.073Z,6.40
2017-11-14T01:45:03.624Z,6.00
2017-11-14T01:47:31.124Z,5.80
2017-11-14T01:49:59.864Z,5.03
2017-11-14T01:52:27.523Z,5.40
2017-11-14T01:54:55.424Z,5.77
2017-11-14T01:57:22.916Z,6.43
2017-11-14T01:59:52.137Z,6.10
2017-11-14T02:02:19.632Z,6.33
2017-11-14T02:04:47.916Z,5.90
2017-11-14T02:07:15.407Z,6.10
2017-11-14T02:09:44.450Z,5.53
2017-11-14T02:12:13.084Z,5.90
2017-11-14T02:14:40.756Z,5.77
2017-11-14T02:17:08.268Z,5.93
2017-11-14T02:19:37.096Z,5.33
2017-11-14T02:22:04.611Z,5.80
2017-11-14T02:24:33.479Z,6.57
2017-11-14T02:27:00.992Z,6.63
2017-11-14T02:29:29.848Z,5.70
2017-11-14T02:31:57.376Z,5.90
2017-11-14T02:34:25.637Z,6.97
2017-11-14T02:36:53.196Z,7.10
2017-11-14T02:39:20.703Z,5.43
2017-11-14T02:41:48.972Z,6.07
2017-11-14T02:44:17.323Z,5.60
2017-11-14T02:46:44.820Z,5.80
2017-11-14T02:49:12.336Z,5.57
2017-11-14T02:51:40.344Z,4.33
2017-11-14T02:54:07.864Z,4.40
2017-11-14T02:56:35.356Z,5.70
2017-11-14T02:59:04.265Z,6.07
2017-11-14T03:01:31.756Z,5.57
2017-11-14T03:03:59.515Z,5.90
2017-11-14T03:06:27.941Z,5.50
2017-11-14T03:08:55.592Z,5.50
2017-11-14T03:11:23.875Z,6.00
2017-11-14T03:13:51.368Z,5.90
2017-11-14T03:16:18.897Z,5.67
2017-11-14T03:18:46.388Z,4.33
2017-11-14T03:21:15.404Z,4.93
2017-11-14T03:23:44.256Z,4.77
2017-11-14T03:26:11.771Z,5.53
2017-11-14T03:28:40.408Z,5.87
2017-11-14T03:31:07.903Z,5.30
2017-11-14T03:33:36.564Z,5.10
2017-11-14T03:36:05.373Z,5.73
2017-11-14T03:38:32.883Z,5.37
2017-11-14T03:41:00.381Z,5.90
2017-11-14T03:43:27.934Z,5.77
2017-11-14T03:45:55.437Z,5.90
2017-11-14T03:48:23.692Z,6.20
2017-11-14T03:50:51.316Z,5.70
2017-11-14T03:53:18.809Z,5.30
2017-11-14T03:55:46.384Z,5.60
2017-11-14T03:58:15.384Z,5.20
2017-11-14T04:00:43.677Z,5.23
2017-11-14T04:03:11.944Z,5.80
2017-11-14T04:05:40.343Z,5.57
2017-11-14T04:08:08.005Z,5.53
2017-11-14T04:10:35.532Z,6.03
2017-11-14T04:13:03.420Z,5.30
2017-11-14T04:15:30.932Z,5.50
2017-11-14T04:17:58.420Z,5.83
2017-11-14T04:20:25.953Z,5.17
2017-11-14T04:22:54.220Z,5.73
2017-11-14T04:25:21.736Z,4.70
2017-11-14T04:27:49.245Z,5.80
2017-11-14T04:30:16.938Z,4.70
2017-11-14T04:32:45.201Z,4.73
2017-11-14T04:35:12.715Z,5.50
2017-11-14T04:37:40.599Z,5.53
2017-11-14T04:40:09.249Z,5.73
2017-11-14T04:42:37.148Z,5.57
2017-11-14T04:45:05.428Z,6.10
2017-11-14T04:47:33.816Z,5.50
2017-11-14T04:50:01.737Z,5.30
2017-11-14T04:52:29.337Z,5.30
2017-11-14T04:54:56.847Z,5.27
2017-11-14T04:57:24.340Z,5.93
2017-11-14T04:59:52.988Z,5.23
2017-11-14T05:02:20.479Z,4.73
2017-11-14T05:04:47.990Z,5.00
2017-11-14T05:07:15.486Z,4.80
2017-11-14T05:09:43.005Z,4.70
2017-11-14T05:12:11.956Z,5.30
2017-11-14T05:14:39.483Z,5.53
2017-11-14T05:17:07.381Z,5.03
2017-11-14T05:19:34.980Z,5.10
2017-11-14T05:22:03.706Z,4.93
2017-11-14T05:24:31.985Z,5.70
2017-11-14T05:26:59.884Z,5.60
2017-11-14T05:29:28.904Z,4.13
2017-11-14T05:31:56.800Z,4.43
2017-11-14T05:34:25.100Z,5.23
2017-11-14T05:36:52.596Z,5.30
2017-11-14T05:39:20.851Z,5.00
2017-11-14T05:41:48.869Z,5.77
2017-11-14T05:44:16.381Z,5.37
2017-11-14T05:46:45.040Z,5.03
2017-11-14T05:49:12.532Z,4.73
2017-11-14T05:51:41.180Z,5.40
2017-11-14T05:54:09.488Z,4.80
2017-11-14T05:56:37.398Z,5.00
2017-11-14T05:59:05.285Z,4.87
2017-11-14T06:01:32.811Z,5.10
2017-11-14T06:04:00.295Z,5.00
2017-11-14T06:06:28.561Z,5.77
2017-11-14T06:08:56.176Z,6.20
2017-11-14T06:11:23.832Z,6.20
2017-11-14T06:13:51.346Z,5.53
2017-11-14T06:16:18.836Z,4.90
2017-11-14T06:18:46.748Z,6.03
2017-11-14T06:21:14.243Z,5.90
2017-11-14T06:23:41.801Z,5.53
2017-11-14T06:26:10.410Z,5.70
2017-11-14T06:28:37.904Z,6.00
2017-11-14T06:31:06.561Z,5.40
2017-11-14T06:33:35.416Z,5.60
2017-11-14T06:36:03.332Z,5.50
2017-11-14T06:38:32.287Z,5.40
2017-11-14T06:41:01.151Z,6.20
2017-11-14T06:43:29.896Z,6.10
2017-11-14T06:45:57.409Z,6.97
2017-11-14T06:48:24.912Z,6.30
2017-11-14T06:50:52.439Z,5.47
2017-11-14T06:53:21.436Z,5.10
2017-11-14T06:55:48.948Z,5.73
2017-11-14T06:58:16.439Z,5.37
2017-11-14T07:00:44.056Z,6.40
2017-11-14T07:03:12.371Z,8.07
2017-11-14T07:05:39.867Z,9.17
2017-11-14T07:08:07.385Z,7.30
2017-11-14T07:10:35.473Z,7.33
2017-11-14T07:13:03.187Z,6.20
2017-11-14T07:15:30.694Z,6.10
2017-11-14T07:17:58.937Z,5.87
2017-11-14T07:20:27.198Z,6.10
2017-11-14T07:22:54.697Z,9.13
2017-11-14T07:25:22.613Z,9.20
2017-11-14T07:27:50.115Z,10.03
2017-11-14T07:30:17.637Z,9.30
2017-11-14T07:32:45.128Z,9.60
2017-11-14T07:35:12.648Z,10.03
2017-11-14T07:37:40.156Z,8.20
2017-11-14T07:40:08.437Z,7.40
2017-11-14T07:42:36.705Z,6.90
2017-11-14T07:45:04.987Z,7.07
2017-11-14T07:47:33.266Z,6.50
2017-11-14T07:50:00.784Z,7.00
2017-11-14T07:52:28.277Z,5.33
2017-11-14T07:54:55.945Z,5.90
2017-11-14T07:57:23.444Z,6.43
2017-11-14T07:59:50.965Z,6.20
2017-11-14T08:02:18.456Z,7.27
2017-11-14T08:04:46.372Z,6.47
2017-11-14T08:07:13.872Z,7.30
2017-11-14T08:09:41.493Z,7.10
2017-11-14T08:12:09.403Z,8.23
2017-11-14T08:14:37.827Z,9.10
2017-11-14T08:17:05.349Z,9.70
2017-11-14T08:19:33.984Z,8.43
2017-11-14T08:22:01.505Z,7.80
2017-11-14T08:24:30.136Z,7.30
2017-11-14T08:26:57.760Z,7.83
2017-11-14T08:29:26.396Z,6.40
2017-11-14T08:31:53.948Z,7.70
2017-11-14T08:34:22.576Z,6.37
2017-11-14T08:36:50.092Z,7.90
2017-11-14T08:39:17.594Z,7.10
2017-11-14T08:41:45.964Z,7.87
2017-11-14T08:44:13.460Z,9.00
2017-11-14T08:46:40.993Z,7.60
2017-11-14T08:49:08.488Z,8.50
2017-11-14T08:51:36.005Z,8.43
2017-11-14T08:54:03.909Z,10.63
2017-11-14T08:56:31.868Z,9.90
2017-11-14T08:58:59.757Z,8.70
2017-11-14T09:01:27.277Z,8.60
2017-11-14T09:03:55.313Z,8.63
2017-11-14T09:06:22.832Z,10.70
2017-11-14T09:08:51.233Z,10.53
2017-11-14T09:11:18.752Z,10.10
2017-11-14T09:13:47.172Z,7.90
2017-11-14T09:16:15.456Z,9.00
2017-11-14T09:18:42.960Z,8.07
2017-11-14T09:21:11.243Z,9.10
2017-11-14T09:23:39.132Z,9.33
2017-11-14T09:26:06.664Z,8.50
2017-11-14T09:28:34.160Z,6.10
2017-11-14T09:31:01.672Z,5.00
2017-11-14T09:33:30.296Z,4.93
2017-11-14T09:35:57.809Z,5.17
2017-11-14T09:38:26.607Z,5.80
2017-11-14T09:40:54.121Z,5.50
2017-11-14T09:43:22.953Z,4.93
2017-11-14T09:45:51.429Z,5.27
2017-11-14T09:48:18.920Z,5.40
2017-11-14T09:50:46.449Z,4.80
2017-11-14T09:53:15.452Z,3.97
2017-11-14T09:55:43.915Z,4.70
2017-11-14T09:58:11.981Z,5.20
2017-11-14T10:00:39.640Z,5.60
2017-11-14T10:03:07.895Z,5.07
2017-11-14T10:05:35.407Z,5.60
2017-11-14T10:08:02.915Z,5.17
2017-11-14T10:10:30.477Z,5.00
2017-11-14T10:12:57.996Z,5.30
2017-11-14T10:15:25.492Z,4.63
2017-11-14T10:17:53.004Z,4.80
2017-11-14T10:20:20.904Z,3.80
2017-11-14T10:22:48.420Z,4.80
2017-11-14T10:25:15.911Z,4.17
2017-11-14T10:27:43.476Z,3.17
2017-11-14T10:30:11.736Z,3.30
2017-11-14T10:32:40.205Z,3.40
2017-11-14T10:35:07.701Z,4.97
2017-11-14T10:37:35.332Z,4.33
2017-11-14T10:40:02.847Z,4.30
2017-11-14T10:42:30.462Z,3.80
2017-11-14T10:44:57.957Z,4.83
2017-11-14T10:47:25.537Z,4.93
2017-11-14T10:49:53.071Z,4.30
2017-11-14T10:52:20.592Z,4.30
2017-11-14T10:54:48.088Z,4.70
2017-11-14T10:57:15.596Z,4.30
2017-11-14T10:59:44.292Z,4.70
2017-11-14T11:02:11.848Z,4.87
2017-11-14T11:04:39.744Z,4.10
2017-11-14T11:07:08.776Z,4.47
2017-11-14T11:09:37.048Z,3.93
2017-11-14T11:12:04.557Z,4.37
2017-11-14T11:14:32.053Z,4.87
2017-11-14T11:16:59.594Z,4.67
2017-11-14T11:19:28.459Z,4.27
2017-11-14T11:21:55.972Z,4.90
2017-11-14T11:24:23.469Z,4.40
2017-11-14T11:26:50.993Z,5.13
2017-11-14T11:29:19.253Z,4.97
2017-11-14T11:31:46.782Z,4.70
2017-11-14T11:34:14.348Z,4.50
2017-11-14T11:36:42.009Z,4.10
2017-11-14T11:39:10.342Z,4.43
2017-11-14T11:41:37.856Z,4.30
2017-11-14T11:44:05.354Z,4.90
2017-11-14T11:46:32.873Z,4.83
2017-11-14T11:49:00.365Z,3.30
2017-11-14T11:51:27.881Z,4.03
2017-11-14T11:53:56.163Z,5.77
2017-11-14T11:56:25.113Z,6.67
2017-11-14T11:58:53.372Z,6.57
2017-11-14T12:01:21.066Z,7.50
2017-11-14T12:03:48.723Z,7.80
2017-11-14T12:06:16.229Z,7.53
2017-11-14T12:08:43.744Z,7.93
2017-11-14T12:11:12.085Z,7.70
2017-11-14T12:13:39.609Z,8.27
2017-11-14T12:16:07.124Z,9.43
2017-11-14T12:18:36.007Z,8.73
2017-11-14T12:21:03.508Z,8.33
2017-11-14T12:23:32.513Z,7.53
2017-11-14T12:26:00.893Z,8.60
2017-11-14T12:28:28.396Z,9.80
2017-11-14T12:30:55.916Z,10.37
2017-11-14T12:33:24.588Z,10.30
2017-11-14T12:35:52.864Z,8.33
2017-11-14T12:38:20.866Z,10.40
2017-11-14T12:40:48.408Z,10.20
2017-11-14T12:43:15.912Z,9.37
2017-11-14T12:45:43.420Z,11.40
2017-11-14T12:48:11.484Z,10.90
2017-11-14T12:50:39.020Z,11.00
2017-11-14T12:53:07.301Z,9.67
2017-11-14T12:55:34.815Z,8.90
2017-11-14T12:58:02.528Z,8.97
2017-11-14T13:00:30.040Z,9.03
2017-11-14T13:02:57.630Z,9.60
2017-11-14T13:05:25.259Z,10.07
2017-11-14T13:07:53.192Z,9.13
2017-11-14T13:10:20.820Z,5.90
2017-11-14T13:12:48.344Z,6.40
2017-11-14T13:15:16.633Z,6.33
2017-11-14T13:17:44.888Z,5.90
2017-11-14T13:20:12.442Z,7.10
2017-11-14T13:22:41.255Z,6.77
2017-11-14T13:25:09.642Z,5.37
2017-11-14T13:27:38.832Z,6.53
2017-11-14T13:30:06.745Z,5.60
2017-11-14T13:32:34.240Z,7.57
2017-11-14T13:35:01.732Z,7.10
2017-11-14T13:37:29.248Z,6.30
2017-11-14T13:39:57.639Z,6.23
2017-11-14T13:42:25.305Z,6.83
2017-11-14T13:44:52.801Z,6.80
2017-11-14T13:47:21.080Z,7.13
2017-11-14T13:49:48.577Z,8.70
2017-11-14T13:52:17.499Z,8.37
2017-11-14T13:54:45.484Z,8.87
2017-11-14T13:57:13.764Z,9.77
2017-11-14T13:59:41.262Z,9.30
2017-11-14T14:02:09.912Z,9.20
2017-11-14T14:04:37.927Z,9.60
2017-11-14T14:07:06.217Z,9.33
2017-11-14T14:09:33.733Z,11.20
2017-11-14T14:12:02.941Z,10.23
2017-11-14T14:14:30.444Z,10.93
2017-11-14T14:16:58.728Z,10.43
2017-11-14T14:19:27.016Z,10.40
2017-11-14T14:21:54.928Z,11.20
2017-11-14T14:24:22.447Z,11.63
2017-11-14T14:26:49.983Z,10.60
2017-11-14T14:29:17.484Z,10.50
2017-11-14T14:31:45.005Z,11.80
2017-11-14T14:34:12.699Z,10.70
2017-11-14T14:36:40.320Z,11.93
2017-11-14T14:39:08.412Z,11.27
2017-11-14T14:41:35.948Z,10.70
2017-11-14T14:44:04.216Z,10.83
2017-11-14T14:46:33.086Z,10.63
2017-11-14T14:49:01.444Z,11.37
2017-11-14T14:51:28.967Z,11.60
2017-11-14T14:53:57.030Z,9.63
2017-11-14T14:56:24.547Z,10.73
2017-11-14T14:58:52.138Z,11.40
2017-11-14T15:01:19.689Z,11.63
2017-11-14T15:03:47.628Z,10.77
2017-11-14T15:06:15.127Z,11.67
2017-11-14T15:08:44.156Z,10.93
2017-11-14T15:11:13.311Z,11.93
2017-11-14T15:13:40.960Z,11.97
2017-11-14T15:16:08.460Z,12.17
2017-11-14T15:18:35.992Z,11.90
2017-11-14T15:21:03.497Z,12.13
2017-11-14T15:23:31.185Z,11.57
2017-11-14T15:25:59.078Z,11.93
2017-11-14T15:28:26.708Z,10.80
2017-11-14T15:30:54.977Z,11.30
2017-11-14T15:33:22.497Z,11.40
2017-11-14T15:35:50.001Z,13.63
2017-11-14T15:38:17.572Z,12.37
2017-11-14T15:40:45.204Z,13.37
2017-11-14T15:43:12.734Z,13.27
2017-11-14T15:45:41.004Z,13.20
2017-11-14T15:48:09.283Z,12.13
2017-11-14T15:50:37.556Z,14.07
2017-11-14T15:53:05.849Z,14.70
2017-11-14T15:55:33.740Z,13.80
2017-11-14T15:58:01.712Z,14.37
2017-11-14T16:00:29.220Z,14.13
2017-11-14T16:02:57.136Z,14.47
2017-11-14T16:05:24.636Z,14.87
2017-11-14T16:07:52.160Z,13.20
2017-11-14T16:10:20.054Z,15.60
2017-11-14T16:12:48.375Z,14.57
2017-11-14T16:15:15.903Z,14.27
2017-11-14T16:17:43.416Z,16.07
2017-11-14T16:20:11.435Z,15.17
2017-11-14T16:22:39.348Z,15.83
2017-11-14T16:25:06.887Z,14.70
2017-11-14T16:27:34.821Z,14.77
2017-11-14T16:30:02.753Z,15.93
2017-11-14T16:32:31.016Z,16.60
2017-11-14T16:34:59.312Z,16.90
2017-11-14T16:37:26.820Z,18.17
2017-11-14T16:39:55.756Z,15.87
2017-11-14T16:42:23.313Z,16.47
2017-11-14T16:44:51.289Z,14.40
2017-11-14T16:47:18.813Z,15.80
2017-11-14T16:49:47.780Z,16.97
2017-11-14T16:52:15.495Z,17.23
2017-11-14T16:54:43.005Z,17.23
2017-11-14T16:57:10.580Z,17.97
2017-11-14T16:59:39.012Z,17.90
2017-11-14T17:02:06.514Z,16.50
2017-11-14T17:04:34.196Z,16.97
2017-11-14T17:07:01.713Z,18.20
2017-11-14T17:09:30.608Z,16.50
2017-11-14T17:11:58.116Z,17.47
2017-11-14T17:14:27.183Z,17.57
2017-11-14T17:16:54.688Z,16.40
2017-11-14T17:19:23.559Z,16.87
2017-11-14T17:21:51.093Z,17.97
2017-11-14T17:24:18.591Z,18.00
2017-11-14T17:26:46.127Z,16.60
2017-11-14T17:29:14.016Z,16.53
2017-11-14T17:31:41.512Z,17.20
2017-11-14T17:34:09.029Z,18.40
2017-11-14T17:36:36.589Z,18.00
2017-11-14T17:39:05.249Z,17.90
2017-11-14T17:41:32.744Z,16.30
2017-11-14T17:44:00.424Z,18.67
2017-11-14T17:46:29.072Z,17.33
2017-11-14T17:48:56.623Z,14.83
2017-11-14T17:51:24.130Z,18.90
2017-11-14T17:53:52.096Z,16.17
2017-11-14T17:56:19.596Z,17.27
2017-11-14T17:58:48.420Z,17.03
2017-11-14T18:01:15.927Z,18.67
2017-11-14T18:03:43.463Z,16.97
2017-11-14T18:06:10.997Z,16.90
2017-11-14T18:08:38.534Z,17.90
2017-11-14T18:11:06.444Z,16.90
2017-11-14T18:13:33.967Z,16.40
2017-11-14T18:16:01.480Z,17.23
2017-11-14T18:18:30.516Z,18.33
2017-11-14T18:20:59.200Z,19.73
2017-11-14T18:23:26.835Z,17.30
2017-11-14T18:25:54.332Z,16.77
2017-11-14T18:28:21.833Z,17.30
2017-11-14T18:30:50.644Z,15.80
2017-11-14T18:33:18.157Z,18.70
2017-11-14T18:35:45.766Z,18.50
2017-11-14T18:38:13.282Z,17.57
2017-11-14T18:40:41.593Z,18.03
2017-11-14T18:43:09.092Z,19.03
2017-11-14T18:45:36.597Z,17.07
2017-11-14T18:48:04.264Z,16.57
2017-11-14T18:50:32.920Z,16.30
2017-11-14T18:53:00.480Z,17.00
2017-11-14T18:55:28.036Z,19.63
2017-11-14T18:57:55.984Z,16.57
2017-11-14T19:00:23.484Z,20.20
2017-11-14T19:02:50.987Z,19.33
2017-11-14T19:05:18.504Z,16.27
2017-11-14T19:07:46.413Z,20.57
2017-11-14T19:10:13.933Z,17.70
2017-11-14T19:12:41.460Z,18.90
2017-11-14T19:15:09.009Z,17.10
2017-11-14T19:17:36.582Z,19.10
2017-11-14T19:20:05.930Z,17.93
2017-11-14T19:22:34.874Z,18.30
2017-11-14T19:25:02.415Z,16.23
2017-11-14T19:27:31.805Z,15.63
2017-11-14T19:30:00.481Z,21.07
2017-11-14T19:32:29.384Z,21.03
2017-11-14T19:34:56.924Z,18.03
2017-11-14T19:37:25.800Z,16.80
2017-11-14T19:39:53.305Z,18.07
2017-11-14T19:42:20.836Z,16.80
2017-11-14T19:44:48.739Z,17.17
2017-11-14T19:47:17.805Z,18.50
2017-11-14T19:49:46.664Z,18.50
2017-11-14T19:52:15.377Z,16.40
2017-11-14T19:54:44.252Z,16.77
2017-11-14T19:57:11.844Z,18.27
2017-11-14T19:59:39.459Z,19.73
2017-11-14T20:02:08.459Z,18.70
2017-11-14T20:04:35.993Z,17.73
2017-11-14T20:07:04.900Z,17.30
2017-11-14T20:09:33.182Z,17.60
2017-11-14T20:12:00.683Z,16.83
2017-11-14T20:14:28.204Z,17.90
2017-11-14T20:16:57.215Z,17.50
2017-11-14T20:19:25.705Z,19.63
2017-11-14T20:21:53.972Z,19.37
2017-11-14T20:24:21.507Z,17.80
2017-11-14T20:26:49.409Z,19.20
2017-11-14T20:29:16.922Z,19.87
2017-11-14T20:31:45.232Z,17.57
2017-11-14T20:34:13.868Z,17.10
2017-11-14T20:36:41.819Z,17.10
2017-11-14T20:39:09.324Z,18.03
2017-11-14T20:41:36.880Z,20.77
2017-11-14T20:44:05.304Z,19.10
2017-11-14T20:46:32.964Z,17.87
2017-11-14T20:49:00.472Z,16.70
2017-11-14T20:51:28.780Z,17.03
2017-11-14T20:53:57.050Z,18.50
2017-11-14T20:56:25.320Z,17.93
2017-11-14T20:58:53.989Z,16.53
2017-11-14T21:01:22.416Z,16.63
2017-11-14T21:04:02.200Z,17.97
2017-11-14T21:06:30.103Z,16.67
2017-11-14T21:08:57.648Z,14.90
2017-11-14T21:11:25.939Z,17.43
2017-11-14T21:13:54.976Z,16.07
2017-11-14T21:16:22.499Z,16.90
2017-11-14T21:18:50.016Z,14.77
2017-11-14T21:21:19.027Z,15.97
2017-11-14T21:23:47.341Z,17.23
2017-11-14T21:26:15.241Z,14.90
2017-11-14T21:28:42.779Z,16.87
2017-11-14T21:31:10.290Z,15.40
2017-11-14T21:33:37.816Z,15.40
2017-11-14T21:36:05.330Z,15.67
2017-11-14T21:38:32.853Z,15.70
2017-11-14T21:41:00.377Z,16.63
2017-11-14T21:43:27.907Z,15.63
2017-11-14T21:45:55.407Z,14.30
2017-11-14T21:48:23.684Z,16.57
2017-11-14T21:50:51.980Z,15.43
2017-11-14T21:53:20.612Z,14.90
2017-11-14T21:55:48.140Z,15.80
2017-11-14T21:58:15.655Z,14.67
2017-11-14T22:00:43.177Z,17.43
2017-11-14T22:03:11.084Z,16.10
2017-11-14T22:05:38.612Z,16.40
2017-11-14T22:08:06.164Z,15.87
2017-11-14T22:10:33.688Z,14.80
2017-11-14T22:13:01.189Z,15.00
2017-11-14T22:15:29.458Z,14.47
2017-11-14T22:17:56.996Z,13.90
2017-11-14T22:20:24.896Z,13.93
2017-11-14T22:22:52.424Z,14.17
2017-11-14T22:25:21.283Z,16.50
2017-11-14T22:27:48.812Z,14.07
2017-11-14T22:30:16.824Z,14.40
2017-11-14T22:32:44.363Z,14.30
2017-11-14T22:35:13.008Z,14.50
2017-11-14T22:37:40.904Z,14.27
2017-11-14T22:40:09.200Z,16.07
2017-11-14T22:42:37.112Z,15.90
2017-11-14T22:45:11.924Z,13.40
2017-11-14T22:47:39.824Z,13.00
2017-11-14T22:50:07.747Z,15.97
2017-11-14T22:52:35.648Z,17.43
2017-11-14T22:55:03.177Z,15.70
2017-11-14T22:57:31.829Z,14.87
2017-11-14T22:59:59.373Z,15.93
2017-11-14T23:02:27.267Z,17.70
2017-11-14T23:04:54.781Z,16.17
2017-11-14T23:07:23.073Z,15.50
2017-11-14T23:09:50.583Z,17.07
2017-11-14T23:12:18.107Z,15.90
2017-11-14T23:14:46.380Z,15.40
2017-11-14T23:17:14.297Z,14.90
2017-11-14T23:19:41.798Z,16.93
2017-11-14T23:22:10.085Z,15.73
2017-11-14T23:24:37.588Z,15.90
2017-11-14T23:27:05.114Z,15.67
2017-11-14T23:29:32.620Z,14.80
2017-11-14T23:32:01.312Z,15.93
2017-11-14T23:34:29.228Z,16.00
2017-11-14T23:36:56.745Z,16.03
2017-11-14T23:39:25.687Z,15.77
2017-11-14T23:41:53.190Z,15.17
2017-11-14T23:44:21.129Z,15.60
2017-11-14T23:46:48.637Z,16.43
2017-11-14T23:49:16.160Z,14.80
2017-11-14T23:51:44.432Z,14.97
2017-11-14T23:54:12.712Z,13.80
2017-11-14T23:56:40.982Z,13.37
2017-11-14T23:59:10.021Z,14.03
